createdAt,value
2022-12-19T00:01:48.508Z,28.33
2022-12-19T00:06:05.526Z,29.08
2022-12-19T00:10:21.601Z,27.87
2022-12-19T00:14:37.870Z,28.15
2022-12-19T00:18:55.663Z,28.40
2022-12-19T00:23:11.983Z,27.13
2022-12-19T00:27:28.177Z,26.92
2022-12-19T00:31:44.415Z,27.40
2022-12-19T00:36:02.508Z,26.70
2022-12-19T00:40:18.900Z,30.37
2022-12-19T00:44:35.176Z,28.60
2022-12-19T00:48:51.356Z,28.85
2022-12-19T00:53:07.460Z,26.87
2022-12-19T00:57:23.658Z,29.85
2022-12-19T01:01:42.061Z,29.12
2022-12-19T01:05:58.323Z,29.15
2022-12-19T01:10:14.592Z,28.02
2022-12-19T01:14:30.740Z,28.48
2022-12-19T01:18:46.811Z,29.45
2022-12-19T01:23:02.990Z,27.90
2022-12-19T01:27:19.213Z,26.98
2022-12-19T01:31:35.561Z,27.23
2022-12-19T01:35:51.871Z,26.95
2022-12-19T01:40:08.689Z,28.42
2022-12-19T01:44:26.473Z,28.33
2022-12-19T01:48:44.919Z,29.20
2022-12-19T01:53:01.983Z,26.58
2022-12-19T01:57:19.958Z,27.45
2022-12-19T02:01:37.718Z,27.90
2022-12-19T02:06:08.794Z,26.87
2022-12-19T02:10:24.952Z,29.00
2022-12-19T02:14:41.297Z,27.40
2022-12-19T02:19:21.473Z,27.80
2022-12-19T02:23:51.851Z,28.25
2022-12-19T02:28:48.066Z,29.70
2022-12-19T02:33:24.490Z,29.50
2022-12-19T02:37:53.942Z,27.00
2022-12-19T02:42:14.034Z,27.40
2022-12-19T02:46:31.013Z,27.15
2022-12-19T02:50:50.151Z,30.35
2022-12-19T02:55:12.949Z,28.95
2022-12-19T03:00:03.051Z,29.73
2022-12-19T03:04:25.086Z,29.40
2022-12-19T03:08:47.674Z,28.55
2022-12-19T03:13:29.163Z,30.00
2022-12-19T03:17:45.787Z,28.83
2022-12-19T03:22:02.146Z,29.23
2022-12-19T03:26:21.027Z,29.70
2022-12-19T03:30:39.443Z,30.85
2022-12-19T03:35:08.267Z,29.73
2022-12-19T03:39:27.059Z,29.20
2022-12-19T03:43:44.972Z,29.37
2022-12-19T03:48:05.199Z,30.65
2022-12-19T03:52:36.036Z,28.50
2022-12-19T03:56:56.550Z,31.00
2022-12-19T04:01:12.896Z,29.55
2022-12-19T04:05:29.705Z,28.45
2022-12-19T04:09:46.490Z,29.27
2022-12-19T04:14:07.994Z,27.77
2022-12-19T04:18:24.504Z,30.48
2022-12-19T04:23:11.995Z,31.95
2022-12-19T04:27:34.445Z,30.33
2022-12-19T04:31:51.111Z,31.40
2022-12-19T04:36:08.316Z,29.35
2022-12-19T04:40:24.475Z,29.73
2022-12-19T04:44:40.670Z,29.55
2022-12-19T04:48:56.878Z,30.95
2022-12-19T04:53:13.263Z,30.33
2022-12-19T04:57:32.555Z,28.90
2022-12-19T05:01:48.942Z,28.87
2022-12-19T05:06:13.107Z,30.42
2022-12-19T05:10:30.287Z,27.83
2022-12-19T05:14:46.730Z,27.60
2022-12-19T05:19:02.987Z,27.33
2022-12-19T05:23:19.861Z,26.48
2022-12-19T05:27:36.057Z,26.27
2022-12-19T05:31:52.658Z,26.12
2022-12-19T05:36:09.859Z,27.10
2022-12-19T05:40:26.089Z,26.98
2022-12-19T05:44:42.192Z,23.00
2022-12-19T05:48:59.509Z,26.48
2022-12-19T05:53:18.112Z,27.10
2022-12-19T05:57:37.151Z,26.42
2022-12-19T06:01:54.387Z,25.52
2022-12-19T06:06:16.569Z,27.37
2022-12-19T06:10:32.847Z,26.33
2022-12-19T06:14:49.138Z,25.65
2022-12-19T06:19:05.323Z,23.87
2022-12-19T06:23:21.411Z,24.75
2022-12-19T06:27:37.776Z,26.73
2022-12-19T06:31:53.926Z,26.50
2022-12-19T06:36:17.117Z,25.92
2022-12-19T06:40:52.544Z,26.70
2022-12-19T06:45:09.059Z,29.02
2022-12-19T06:49:25.253Z,26.45
2022-12-19T06:53:41.487Z,25.85
2022-12-19T06:57:57.671Z,24.87
2022-12-19T07:02:28.784Z,24.95
2022-12-19T07:06:49.042Z,25.05
2022-12-19T07:11:05.780Z,24.30
2022-12-19T07:15:22.106Z,24.65
2022-12-19T07:19:38.978Z,26.00
2022-12-19T07:23:55.441Z,23.10
2022-12-19T07:28:11.702Z,23.75
2022-12-19T07:32:27.959Z,25.75
2022-12-19T07:36:44.194Z,24.12
2022-12-19T07:41:02.419Z,23.58
2022-12-19T07:45:18.655Z,23.45
2022-12-19T07:49:35.472Z,22.60
2022-12-19T07:53:51.741Z,22.87
2022-12-19T07:58:10.567Z,23.27
2022-12-19T08:02:26.792Z,20.52
2022-12-19T08:06:43.119Z,22.17
2022-12-19T08:11:19.050Z,20.12
2022-12-19T08:15:35.166Z,20.55
2022-12-19T08:19:51.301Z,20.77
2022-12-19T08:24:07.850Z,20.73
2022-12-19T08:28:23.983Z,20.92
2022-12-19T08:32:40.322Z,20.70
2022-12-19T08:36:56.604Z,20.00
2022-12-19T08:41:13.121Z,19.90
2022-12-19T08:45:29.269Z,20.00
2022-12-19T08:49:45.596Z,18.52
2022-12-19T08:54:01.841Z,21.00
2022-12-19T08:58:26.828Z,17.42
2022-12-19T09:02:43.177Z,21.45
2022-12-19T09:06:59.433Z,17.70
2022-12-19T09:11:17.841Z,16.48
2022-12-19T09:15:33.991Z,18.48
2022-12-19T09:19:51.999Z,18.85
2022-12-19T09:24:08.992Z,17.20
2022-12-19T09:28:27.707Z,20.33
2022-12-19T09:32:44.255Z,17.77
2022-12-19T09:37:00.419Z,17.65
2022-12-19T09:41:41.279Z,17.55
2022-12-19T09:46:20.977Z,16.50
2022-12-19T09:51:11.228Z,16.60
2022-12-19T09:55:35.584Z,17.55
2022-12-19T10:00:05.361Z,17.15
2022-12-19T10:04:23.310Z,16.02
2022-12-19T10:09:38.597Z,16.17
2022-12-19T10:13:37.593Z,16.62
2022-12-19T10:18:08.066Z,16.58
2022-12-19T10:22:44.814Z,17.08
2022-12-19T10:27:03.923Z,16.35
2022-12-19T10:31:42.040Z,15.60
2022-12-19T10:36:02.049Z,16.17
2022-12-19T10:40:34.319Z,16.02
2022-12-19T10:44:52.391Z,17.50
2022-12-19T10:49:26.190Z,16.58
2022-12-19T10:53:52.895Z,16.87
2022-12-19T10:58:27.841Z,17.15
2022-12-19T11:02:51.613Z,18.62
2022-12-19T11:07:21.199Z,17.17
2022-12-19T11:15:34.446Z,16.70
2022-12-19T11:23:10.541Z,15.93
2022-12-19T11:29:37.375Z,16.42
2022-12-19T11:29:40.989Z,15.93
2022-12-19T11:35:24.368Z,16.20
2022-12-19T11:40:10.975Z,16.42
2022-12-19T11:44:34.491Z,18.02
2022-12-19T11:49:01.366Z,15.80
2022-12-19T11:53:46.372Z,17.48
2022-12-19T11:58:02.600Z,17.45
2022-12-19T12:02:37.175Z,16.40
2022-12-19T12:06:55.224Z,15.80
2022-12-19T12:15:29.339Z,16.30
2022-12-19T12:27:04.810Z,16.83
2022-12-19T12:31:23.446Z,16.48
2022-12-19T12:31:53.473Z,16.58
2022-12-19T12:35:38.558Z,17.70
2022-12-19T12:41:03.171Z,18.23
2022-12-19T12:45:27.491Z,17.45
2022-12-19T12:49:50.645Z,18.27
2022-12-19T12:54:11.147Z,17.48
2022-12-19T12:58:54.162Z,17.62
2022-12-19T13:03:17.318Z,16.92
2022-12-19T13:07:42.796Z,17.48
2022-12-19T13:12:22.372Z,17.00
2022-12-19T13:16:44.386Z,15.93
2022-12-19T13:21:02.460Z,17.37
2022-12-19T13:25:38.794Z,15.65
2022-12-19T13:30:00.665Z,16.12
2022-12-19T13:34:20.229Z,15.60
2022-12-19T13:39:51.157Z,15.35
2022-12-19T13:43:49.503Z,15.20
2022-12-19T13:48:09.313Z,15.65
2022-12-19T13:52:26.916Z,17.60
2022-12-19T13:56:43.545Z,17.83
2022-12-19T14:01:05.064Z,17.40
2022-12-19T14:06:14.752Z,17.30
2022-12-19T14:11:34.251Z,17.62
2022-12-19T14:15:14.444Z,17.20
2022-12-19T14:19:37.599Z,17.12
2022-12-19T14:24:14.961Z,15.98
2022-12-19T14:29:02.264Z,15.35
2022-12-19T14:33:44.839Z,16.12
2022-12-19T14:39:22.990Z,16.23
2022-12-19T14:43:57.608Z,16.25
2022-12-19T14:54:14.082Z,16.75
2022-12-19T14:54:26.486Z,17.00
2022-12-19T14:57:46.434Z,16.27
2022-12-19T15:02:28.167Z,15.65
2022-12-19T15:07:09.740Z,16.17
2022-12-19T15:12:06.203Z,18.85
2022-12-19T15:16:29.774Z,17.45
2022-12-19T15:20:45.999Z,16.23
2022-12-19T15:25:02.222Z,17.85
2022-12-19T15:29:22.306Z,16.25
2022-12-19T15:33:59.745Z,17.25
2022-12-19T15:38:14.726Z,19.12
2022-12-19T15:42:31.664Z,15.98
2022-12-19T15:46:49.616Z,17.27
2022-12-19T15:51:06.263Z,16.75
2022-12-19T15:55:24.137Z,17.95
2022-12-19T15:59:44.456Z,16.67
2022-12-19T16:04:03.747Z,17.02
2022-12-19T16:08:22.033Z,17.20
2022-12-19T16:13:01.057Z,17.35
2022-12-19T16:17:21.278Z,18.10
2022-12-19T16:21:37.508Z,17.77
2022-12-19T16:25:53.841Z,16.98
2022-12-19T16:30:28.959Z,17.70
2022-12-19T16:34:45.275Z,17.67
2022-12-19T16:39:01.634Z,18.62
2022-12-19T16:43:37.584Z,16.50
2022-12-19T16:47:53.929Z,17.05
2022-12-19T16:52:10.490Z,19.58
2022-12-19T16:56:29.722Z,18.50
2022-12-19T17:00:46.115Z,17.58
2022-12-19T17:05:06.487Z,19.02
2022-12-19T17:09:24.905Z,18.87
2022-12-19T17:13:41.766Z,19.12
2022-12-19T17:18:00.164Z,18.73
2022-12-19T17:22:18.369Z,19.60
2022-12-19T17:26:36.411Z,18.90
2022-12-19T17:30:55.562Z,18.70
2022-12-19T17:35:27.264Z,19.08
2022-12-19T17:39:44.219Z,18.17
2022-12-19T17:44:00.539Z,18.25
2022-12-19T17:48:28.797Z,19.15
2022-12-19T17:52:46.439Z,18.12
2022-12-19T17:57:02.651Z,19.25
2022-12-19T18:01:23.563Z,19.80
2022-12-19T18:05:40.383Z,19.70
2022-12-19T18:09:56.540Z,19.62
2022-12-19T18:14:13.011Z,18.92
2022-12-19T18:18:35.755Z,18.92
2022-12-19T18:22:52.527Z,18.85
2022-12-19T18:27:08.964Z,18.67
2022-12-19T18:31:26.340Z,18.35
2022-12-19T18:35:45.093Z,19.83
2022-12-19T18:40:01.204Z,19.73
2022-12-19T18:44:17.806Z,19.48
2022-12-19T18:48:37.116Z,19.12
2022-12-19T18:52:54.055Z,20.00
2022-12-19T18:57:10.263Z,20.83
2022-12-19T19:01:27.155Z,20.48
2022-12-19T19:05:43.760Z,18.77
2022-12-19T19:09:59.935Z,19.70
2022-12-19T19:14:16.335Z,21.05
2022-12-19T19:18:40.444Z,18.35
2022-12-19T19:23:02.336Z,19.48
2022-12-19T19:27:18.768Z,20.58
2022-12-19T19:31:37.129Z,18.87
2022-12-19T19:35:57.224Z,19.90
2022-12-19T19:40:14.179Z,20.45
2022-12-19T19:44:30.392Z,18.75
2022-12-19T19:48:46.531Z,19.45
2022-12-19T19:53:02.887Z,19.27
2022-12-19T19:57:19.209Z,17.87
2022-12-19T20:01:35.586Z,19.77
2022-12-19T20:05:59.322Z,19.75
2022-12-19T20:10:15.714Z,18.58
2022-12-19T20:14:31.907Z,19.23
2022-12-19T20:18:52.120Z,20.55
2022-12-19T20:23:08.270Z,18.80
2022-12-19T20:27:24.714Z,19.27
2022-12-19T20:31:41.900Z,20.25
2022-12-19T20:36:05.326Z,19.37
2022-12-19T20:44:37.702Z,19.98
2022-12-19T20:48:57.000Z,19.73
2022-12-19T20:53:13.182Z,20.83
2022-12-19T20:57:30.620Z,19.40
2022-12-19T21:01:47.153Z,19.40
2022-12-19T21:06:03.728Z,21.05
2022-12-19T21:10:20.680Z,21.08
2022-12-19T21:14:36.772Z,21.27
2022-12-19T21:18:52.941Z,20.75
2022-12-19T21:23:09.131Z,21.10
2022-12-19T21:27:25.286Z,20.98
2022-12-19T21:31:41.556Z,21.58
2022-12-19T21:35:58.148Z,22.10
2022-12-19T21:40:14.661Z,21.80
2022-12-19T21:44:30.863Z,21.48
2022-12-19T21:48:48.788Z,22.17
2022-12-19T21:53:04.884Z,22.52
2022-12-19T21:57:20.978Z,21.42
2022-12-19T22:01:37.283Z,21.80
2022-12-19T22:05:54.589Z,21.95
2022-12-19T22:10:11.096Z,21.25
2022-12-19T22:14:27.337Z,20.65
2022-12-19T22:18:43.709Z,21.83
2022-12-19T22:22:59.865Z,20.62
2022-12-19T22:27:15.989Z,21.70
2022-12-19T22:31:33.347Z,22.42
2022-12-19T22:35:49.518Z,22.62
2022-12-19T22:40:06.462Z,21.92
2022-12-19T22:44:24.323Z,22.27
2022-12-19T22:48:41.049Z,23.50
2022-12-19T22:52:57.279Z,22.45
2022-12-19T22:57:13.397Z,24.50
2022-12-19T23:01:32.577Z,24.55
2022-12-19T23:05:52.086Z,23.60
2022-12-19T23:10:09.008Z,23.83
2022-12-19T23:14:25.216Z,23.98
2022-12-19T23:18:41.953Z,25.25
2022-12-19T23:22:58.093Z,23.38
2022-12-19T23:27:14.216Z,22.95
2022-12-19T23:31:32.498Z,24.87
2022-12-19T23:35:48.678Z,24.23
2022-12-19T23:40:05.259Z,22.85
2022-12-19T23:44:21.448Z,23.33
2022-12-19T23:48:37.651Z,23.70
2022-12-19T23:52:53.888Z,23.05
2022-12-19T23:57:10.012Z,24.20
